Time;durP1;ratioP1;P1;durP2;ratioP2;P2;SDS_P1;SDS_P2;PMS_P1;PMS_P2;Temp;Humidity;BMP_temperature;BMP_pressure;BME280_temperature;BME280_humidity;BME280_pressure;Samples;Min_cycle;Max_cycle;Signal;HPM_P1;HPM_P2
2020/12/03 00:01:44;;;;;;;0.20;0.10;;;;;;;2.75;100.00;99893.41;5046730;28;20462;-56
2020/12/03 00:04:10;;;;;;;0.30;0.20;;;;;;;2.66;100.00;99894.28;5053153;28;20451;-56
2020/12/03 00:06:49;;;;;;;0.20;0.10;;;;;;;2.57;100.00;99886.44;5053430;28;20497;-56
2020/12/03 00:09:19;;;;;;;0.20;0.10;;;;;;;2.61;100.00;99879.44;5052952;28;20450;-56
2020/12/03 00:11:49;;;;;;;0.20;0.10;;;;;;;2.54;100.00;99888.19;5053002;28;20447;-56
2020/12/03 00:14:16;;;;;;;0.20;0.10;;;;;;;2.50;100.00;99886.47;5052792;28;20490;-56
2020/12/03 00:16:42;;;;;;;0.20;0.10;;;;;;;2.60;100.00;99878.56;5052770;28;20847;-56
2020/12/03 00:19:10;;;;;;;0.30;0.10;;;;;;;2.53;100.00;99878.59;5049380;28;20459;-57
2020/12/03 00:21:39;;;;;;;0.20;0.10;;;;;;;2.55;100.00;99875.06;5039521;28;20458;-56
2020/12/03 00:24:08;;;;;;;0.20;0.10;;;;;;;2.58;100.00;99871.56;5047000;28;20443;-57
2020/12/03 00:26:35;;;;;;;0.20;0.10;;;;;;;2.57;100.00;99862.81;5051406;28;20998;-56
2020/12/03 00:29:01;;;;;;;0.20;0.10;;;;;;;2.63;100.00;99862.81;5052869;28;20471;-56
2020/12/03 00:31:27;;;;;;;0.20;0.10;;;;;;;2.57;100.00;99854.09;5052613;28;20496;-57
2020/12/03 00:33:54;;;;;;;0.20;0.10;;;;;;;2.54;100.00;99860.22;5052485;28;20494;-54
2020/12/03 00:36:21;;;;;;;0.20;0.10;;;;;;;2.65;100.00;99847.06;5048607;28;20482;-56
2020/12/03 00:38:48;;;;;;;0.20;0.10;;;;;;;2.56;100.00;99844.47;5050926;28;20450;-56
2020/12/03 00:41:16;;;;;;;0.20;0.10;;;;;;;2.43;100.00;99838.38;5041454;28;20470;-56
2020/12/03 00:43:42;;;;;;;0.30;0.20;;;;;;;2.54;100.00;99825.25;5052271;28;20587;-57
2020/12/03 00:46:08;;;;;;;0.30;0.20;;;;;;;2.55;100.00;99822.59;5052151;28;20520;-57
2020/12/03 00:48:34;;;;;;;0.20;0.10;;;;;;;2.49;100.00;99811.28;5052131;28;20467;-56
2020/12/03 00:51:01;;;;;;;0.20;0.20;;;;;;;2.52;100.00;99812.13;5052207;28;20447;-57
2020/12/03 00:53:27;;;;;;;0.20;0.10;;;;;;;2.68;100.00;99819.06;5039036;28;20495;-57
2020/12/03 00:55:53;;;;;;;0.20;0.10;;;;;;;2.77;100.00;99810.28;5052400;28;20454;-56
2020/12/03 00:58:19;;;;;;;0.20;0.10;;;;;;;2.59;100.00;99805.97;5047636;28;20533;-56
2020/12/03 01:00:46;;;;;;;0.20;0.10;;;;;;;2.58;100.00;99796.34;5042604;28;20500;-57
2020/12/03 01:03:12;;;;;;;0.20;0.10;;;;;;;2.56;100.00;99797.25;5051747;28;20932;-56
2020/12/03 01:05:38;;;;;;;0.20;0.10;;;;;;;2.57;100.00;99807.72;5052119;28;20497;-57
2020/12/03 01:08:06;;;;;;;0.20;0.10;;;;;;;2.56;100.00;99799.88;5052090;28;20866;-57
2020/12/03 01:10:34;;;;;;;0.40;0.40;;;;;;;2.54;100.00;99794.63;5052383;28;20446;-57
2020/12/03 01:13:02;;;;;;;0.20;0.10;;;;;;;2.54;100.00;99791.16;5046952;28;20568;-57
2020/12/03 01:15:29;;;;;;;0.20;0.20;;;;;;;2.53;100.00;99784.16;5042830;28;20462;-57
2020/12/03 01:17:55;;;;;;;0.20;0.10;;;;;;;2.53;100.00;99787.66;5051992;28;20471;-56
2020/12/03 01:20:26;;;;;;;0.20;0.10;;;;;;;2.57;100.00;99778.00;5052332;28;20454;-56
2020/12/03 01:22:52;;;;;;;0.20;0.10;;;;;;;2.59;100.00;99777.13;5046066;28;20936;-57
2020/12/03 01:25:21;;;;;;;0.30;0.10;;;;;;;2.65;100.00;99766.59;5051863;28;20454;-57
2020/12/03 01:27:48;;;;;;;0.20;0.10;;;;;;;2.49;100.00;99759.69;5047909;28;20483;-57
2020/12/03 01:30:15;;;;;;;0.20;0.10;;;;;;;2.49;100.00;99762.31;5044072;28;20450;-57
2020/12/03 01:32:42;;;;;;;0.20;0.10;;;;;;;2.57;100.00;99755.28;5053171;28;20838;-57
2020/12/03 01:35:11;;;;;;;0.20;0.10;;;;;;;2.52;100.00;99750.94;5056259;28;20454;-57
2020/12/03 01:37:38;;;;;;;0.20;0.10;;;;;;;2.48;100.00;99738.72;5053243;28;20463;-57
2020/12/03 01:40:06;;;;;;;0.20;0.10;;;;;;;2.55;100.00;99729.94;5043539;28;20461;-57
2020/12/03 01:42:38;;;;;;;0.20;0.20;;;;;;;2.52;100.00;99736.06;5053424;28;20858;-57
2020/12/03 01:45:43;;;;;;;0.20;0.10;;;;;;;2.55;100.00;99728.19;5050214;28;20454;-57
2020/12/03 01:48:29;;;;;;;0.20;0.10;;;;;;;2.63;100.00;99728.16;5055329;28;20466;-56
2020/12/03 01:50:55;;;;;;;0.20;0.10;;;;;;;2.63;100.00;99736.88;5055719;28;20446;-57
2020/12/03 01:53:22;;;;;;;0.20;0.10;;;;;;;2.64;100.00;99722.03;5042660;28;20495;-57
2020/12/03 01:55:49;;;;;;;0.20;0.10;;;;;;;2.63;100.00;99721.16;5055937;28;20458;-57
2020/12/03 01:58:44;;;;;;;0.20;0.10;;;;;;;2.60;100.00;99710.69;5051474;28;20482;-57
2020/12/03 02:01:11;;;;;;;2.23;2.23;;;;;;;2.63;100.00;99707.16;5037537;28;20455;-57
2020/12/03 02:03:48;;;;;;;0.20;0.10;;;;;;;2.61;100.00;99707.19;5054870;28;20446;-57
2020/12/03 02:06:29;;;;;;;0.30;0.20;;;;;;;2.58;100.00;99694.06;5055571;28;20496;-57
2020/12/03 02:08:55;;;;;;;0.20;0.10;;;;;;;2.63;100.00;99699.28;5055390;28;20500;-57
2020/12/03 02:11:23;;;;;;;0.20;0.10;;;;;;;2.77;100.00;99686.94;5054983;28;20572;-57
2020/12/03 02:13:56;;;;;;;0.20;0.10;;;;;;;2.71;100.00;99688.72;5041874;28;21016;-57
2020/12/03 02:16:25;;;;;;;0.20;0.10;;;;;;;2.63;100.00;99681.81;5053319;28;20460;-58
2020/12/03 02:18:51;;;;;;;0.20;0.10;;;;;;;2.76;100.00;99676.47;5055139;28;20454;-57
2020/12/03 02:21:18;;;;;;;0.20;0.10;;;;;;;2.61;100.00;99674.81;5053767;28;20442;-56
2020/12/03 02:23:45;;;;;;;0.20;0.10;;;;;;;2.59;100.00;99661.69;5049010;28;20959;-55
2020/12/03 02:26:12;;;;;;;0.20;0.10;;;;;;;2.65;100.00;99651.16;5054984;28;20451;-55
2020/12/03 02:28:39;;;;;;;0.20;0.10;;;;;;;2.63;100.00;99658.19;5042757;28;20490;-55
2020/12/03 02:31:05;;;;;;;0.20;0.10;;;;;;;2.71;100.00;99652.00;5053168;28;20495;-55
2020/12/03 02:33:31;;;;;;;1.37;1.37;;;;;;;2.62;100.00;99645.97;5055085;28;20490;-55
2020/12/03 02:35:58;;;;;;;0.20;0.10;;;;;;;2.76;100.00;99639.75;5055148;28;20461;-55
2020/12/03 02:38:29;;;;;;;0.20;0.20;;;;;;;2.74;100.00;99639.75;5054463;28;20462;-55
2020/12/03 02:41:00;;;;;;;0.20;0.10;;;;;;;2.70;100.00;99642.38;5041531;28;20449;-55
2020/12/03 02:43:26;;;;;;;0.20;0.10;;;;;;;2.84;100.00;99641.41;5046489;28;20455;-55
2020/12/03 02:45:53;;;;;;;0.20;0.10;;;;;;;2.75;100.00;99638.00;5033780;28;20479;-55
2020/12/03 02:48:19;;;;;;;0.30;0.10;;;;;;;2.68;100.00;99635.41;5034243;28;20490;-54
2020/12/03 02:50:46;;;;;;;0.20;0.10;;;;;;;2.65;100.00;99635.44;5035151;28;20645;-55
2020/12/03 02:53:12;;;;;;;0.20;0.10;;;;;;;2.74;100.00;99634.50;5035226;28;20494;-55
2020/12/03 02:55:38;;;;;;;0.20;0.10;;;;;;;2.68;100.00;99627.53;5034878;28;20448;-55
2020/12/03 02:58:04;;;;;;;0.20;0.10;;;;;;;2.76;100.00;99621.38;5033955;28;20988;-55
2020/12/03 03:00:30;;;;;;;0.30;0.10;;;;;;;2.74;100.00;99613.50;5054413;28;20962;-55
2020/12/03 03:02:57;;;;;;;0.20;0.10;;;;;;;2.58;100.00;99610.09;5054260;28;20451;-55
2020/12/03 03:05:23;;;;;;;0.20;0.20;;;;;;;2.68;100.00;99605.66;5054322;28;20450;-54
2020/12/03 03:07:50;;;;;;;0.20;0.10;;;;;;;2.69;100.00;99602.16;5054177;28;20474;-54
2020/12/03 03:10:16;;;;;;;0.20;0.10;;;;;;;2.68;100.00;99595.19;5054188;28;20458;-54
2020/12/03 03:12:42;;;;;;;0.33;0.33;;;;;;;2.67;100.00;99594.31;5048579;28;20459;-55
2020/12/03 03:15:08;;;;;;;0.20;0.10;;;;;;;2.61;100.00;99596.13;5054072;28;21053;-55
2020/12/03 03:17:35;;;;;;;0.20;0.10;;;;;;;2.76;100.00;99606.50;5053842;28;20470;-55
2020/12/03 03:20:01;;;;;;;0.20;0.10;;;;;;;2.68;100.00;99596.06;5054050;28;20450;-54
2020/12/03 03:22:27;;;;;;;0.30;0.20;;;;;;;2.81;100.00;99594.19;5047215;28;20451;-55
2020/12/03 03:24:53;;;;;;;0.30;0.10;;;;;;;2.89;100.00;99587.13;5054057;28;20450;-55
2020/12/03 03:27:19;;;;;;;0.20;0.10;;;;;;;2.82;100.00;99595.06;5050829;28;20483;-55
2020/12/03 03:29:45;;;;;;;0.20;0.10;;;;;;;2.82;100.00;99589.81;5054111;28;20455;-55
2020/12/03 03:32:11;;;;;;;0.20;0.10;;;;;;;2.78;100.00;99588.09;5053954;28;20455;-55
2020/12/03 03:34:37;;;;;;;0.20;0.10;;;;;;;2.79;100.00;99589.84;5053634;28;20486;-55
2020/12/03 03:37:04;;;;;;;0.20;0.10;;;;;;;2.76;100.00;99595.13;5053853;28;20561;-55
2020/12/03 03:39:30;;;;;;;0.20;0.10;;;;;;;2.78;100.00;99599.47;5045827;28;20498;-55
2020/12/03 03:41:56;;;;;;;0.20;0.10;;;;;;;2.84;100.00;99591.53;5047494;28;21027;-54
2020/12/03 03:44:23;;;;;;;0.20;0.10;;;;;;;2.80;100.00;99583.72;5042717;28;20512;-58
2020/12/03 03:46:50;;;;;;;0.30;0.10;;;;;;;2.73;100.00;99574.13;5053287;28;20491;-56
2020/12/03 03:49:16;;;;;;;0.20;0.10;;;;;;;2.88;100.00;99579.28;5053712;28;20496;-56
2020/12/03 03:51:42;;;;;;;0.20;0.10;;;;;;;2.87;100.00;99567.00;5052318;28;20462;-56
2020/12/03 03:54:08;;;;;;;0.20;0.10;;;;;;;2.87;100.00;99574.88;5041487;28;20846;-56
2020/12/03 03:56:35;;;;;;;0.20;0.10;;;;;;;2.84;100.00;99565.28;5051055;28;20505;-56
2020/12/03 03:59:01;;;;;;;0.20;0.10;;;;;;;2.83;100.00;99565.31;5041106;28;20466;-56
2020/12/03 04:01:27;;;;;;;0.20;0.10;;;;;;;2.86;100.00;99565.28;5052094;28;20454;-56
2020/12/03 04:03:54;;;;;;;0.30;0.20;;;;;;;2.96;100.00;99548.56;5053236;28;20450;-56
2020/12/03 04:06:20;;;;;;;0.20;0.10;;;;;;;2.90;100.00;99546.00;5053036;28;20497;-56
2020/12/03 04:08:46;;;;;;;0.20;0.10;;;;;;;2.93;100.00;99551.22;5053036;28;20473;-56
2020/12/03 04:11:15;;;;;;;0.20;0.10;;;;;;;2.80;100.00;99546.97;5052543;28;20450;-56
2020/12/03 04:13:43;;;;;;;0.20;0.10;;;;;;;2.78;100.00;99549.63;5043180;28;20500;-56
2020/12/03 04:16:10;;;;;;;0.20;0.10;;;;;;;2.76;100.00;99547.91;5048547;28;20504;-57
2020/12/03 04:18:38;;;;;;;0.20;0.10;;;;;;;2.82;100.00;99543.44;5052894;28;20562;-57
2020/12/03 04:21:07;;;;;;;0.20;0.10;;;;;;;2.83;100.00;99552.19;5052716;28;20450;-56
2020/12/03 04:23:34;;;;;;;0.20;0.20;;;;;;;2.93;100.00;99541.59;5046400;28;20443;-56
2020/12/03 04:26:01;;;;;;;0.20;0.10;;;;;;;2.80;100.00;99541.72;5052684;28;20478;-56
2020/12/03 04:28:27;;;;;;;0.20;0.10;;;;;;;2.78;100.00;99543.50;5041287;28;20487;-56
2020/12/03 04:30:54;;;;;;;0.20;0.10;;;;;;;2.68;100.00;99540.09;5049578;28;20477;-54
2020/12/03 04:33:21;;;;;;;0.20;0.10;;;;;;;2.61;100.00;99538.41;5052737;28;20558;-56
2020/12/03 04:35:48;;;;;;;0.20;0.10;;;;;;;2.66;100.00;99542.72;5052571;28;20569;-56
2020/12/03 04:38:14;;;;;;;0.20;0.10;;;;;;;2.83;100.00;99533.81;5052573;28;20512;-56
2020/12/03 04:40:43;;;;;;;0.20;0.10;;;;;;;2.71;100.00;99536.56;5039259;28;20454;-56
2020/12/03 04:43:20;;;;;;;0.20;0.10;;;;;;;2.61;100.00;99527.91;5040141;28;20474;-57
2020/12/03 04:45:54;;;;;;;0.20;0.10;;;;;;;2.81;100.00;99522.47;5051816;28;20485;-56
2020/12/03 04:48:34;;;;;;;0.20;0.10;;;;;;;2.81;100.00;99523.34;5052486;28;20459;-57
2020/12/03 04:51:18;;;;;;;0.20;0.10;;;;;;;2.90;100.00;99522.41;5052556;28;20835;-57
2020/12/03 04:54:04;;;;;;;0.20;0.10;;;;;;;2.98;100.00;99520.53;5038968;28;20544;-57
2020/12/03 04:56:44;;;;;;;0.50;0.50;;;;;;;2.89;100.00;99518.03;5052064;28;20845;-57
2020/12/03 05:00:01;;;;;;;0.20;0.10;;;;;;;2.88;100.00;99521.53;5042741;28;20537;-57
2020/12/03 05:02:30;;;;;;;0.20;0.10;;;;;;;2.92;100.00;99521.50;5042341;28;20447;-57
2020/12/03 05:05:12;;;;;;;0.97;0.53;;;;;;;2.96;100.00;99520.56;5049077;28;20862;-57
2020/12/03 05:07:39;;;;;;;0.20;0.10;;;;;;;2.97;100.00;99517.06;5051256;28;21073;-57
2020/12/03 05:10:22;;;;;;;0.20;0.10;;;;;;;3.00;100.00;99516.13;5051938;28;20497;-57
2020/12/03 05:12:49;;;;;;;0.20;0.10;;;;;;;2.81;100.00;99517.22;5047121;28;20871;-57
2020/12/03 05:15:23;;;;;;;0.20;0.10;;;;;;;2.96;100.00;99517.94;5040782;28;20490;-57
2020/12/03 05:18:26;;;;;;;0.20;0.10;;;;;;;2.97;100.00;99514.44;5051636;28;20481;-57
2020/12/03 05:20:54;;;;;;;0.20;0.10;;;;;;;2.93;100.00;99514.47;5052231;28;20500;-57
2020/12/03 05:23:33;;;;;;;0.47;0.47;;;;;;;2.95;100.00;99504.84;5046533;28;20454;-57
2020/12/03 05:26:02;;;;;;;0.20;0.10;;;;;;;2.98;100.00;99507.41;5051919;28;20446;-57
2020/12/03 05:28:48;;;;;;;0.20;0.10;;;;;;;3.08;100.00;99500.31;5046912;28;20479;-57
2020/12/03 05:31:17;;;;;;;0.20;0.10;;;;;;;3.02;100.00;99493.41;5039173;28;20450;-57
2020/12/03 05:33:45;;;;;;;0.20;0.10;;;;;;;2.94;100.00;99474.22;5049494;28;20546;-57
2020/12/03 05:36:22;;;;;;;0.20;0.10;;;;;;;2.96;100.00;99482.94;5049411;28;20470;-57
2020/12/03 05:38:49;;;;;;;0.20;0.10;;;;;;;3.04;100.00;99468.00;5049418;28;20439;-57
2020/12/03 05:41:16;;;;;;;0.20;0.10;;;;;;;3.03;100.00;99463.63;5039725;28;20470;-57
2020/12/03 05:43:42;;;;;;;0.20;0.10;;;;;;;3.06;100.00;99465.34;5048960;28;20455;-57
2020/12/03 05:46:11;;;;;;;0.20;0.10;;;;;;;3.05;100.00;99463.63;5051776;28;20948;-56
2020/12/03 05:48:37;;;;;;;0.20;0.10;;;;;;;3.03;100.00;99468.00;5051592;28;20470;-57
2020/12/03 05:51:31;;;;;;;0.20;0.20;;;;;;;3.06;100.00;99460.09;5051560;28;20457;-57
2020/12/03 05:54:02;;;;;;;0.20;0.10;;;;;;;3.14;100.00;99456.47;5043024;28;20487;-57
2020/12/03 05:56:31;;;;;;;0.20;0.10;;;;;;;3.05;100.00;99456.59;5045522;28;20445;-57
2020/12/03 05:59:21;;;;;;;0.20;0.10;;;;;;;3.10;100.00;99454.78;5044096;28;20574;-56
2020/12/03 06:02:02;;;;;;;0.20;0.20;;;;;;;3.05;100.00;99461.00;5035963;28;20470;-57
2020/12/03 06:04:41;;;;;;;0.20;0.20;;;;;;;3.00;100.00;99463.66;5051811;28;20439;-56
2020/12/03 06:07:31;;;;;;;0.20;0.20;;;;;;;3.21;100.00;99457.28;5038036;28;20473;-57
2020/12/03 06:10:25;;;;;;;0.20;0.10;;;;;;;3.25;100.00;99453.72;5051218;28;20450;-57
2020/12/03 06:12:51;;;;;;;0.20;0.10;;;;;;;3.17;100.00;99453.84;5039440;28;21044;-57
2020/12/03 06:15:39;;;;;;;0.20;0.10;;;;;;;3.25;100.00;99451.09;5050413;28;20494;-56
2020/12/03 06:18:23;;;;;;;0.20;0.10;;;;;;;3.12;100.00;99444.25;5051710;28;20463;-57
2020/12/03 06:21:05;;;;;;;0.20;0.10;;;;;;;3.15;100.00;99434.63;5055275;28;20499;-57
2020/12/03 06:23:46;;;;;;;0.20;0.10;;;;;;;3.18;100.00;99437.19;5048613;28;20445;-57
2020/12/03 06:26:43;;;;;;;0.20;0.10;;;;;;;3.12;100.00;99437.25;5054760;28;20484;-57
2020/12/03 06:29:24;;;;;;;0.20;0.10;;;;;;;3.28;100.00;99427.41;5050497;28;20443;-57
2020/12/03 06:32:23;;;;;;;0.20;0.10;;;;;;;3.23;100.00;99427.47;5054970;28;20816;-57
2020/12/03 06:35:13;;;;;;;0.20;0.10;;;;;;;3.15;100.00;99424.09;5043580;28;20543;-56
2020/12/03 06:37:52;;;;;;;0.20;0.10;;;;;;;3.19;100.00;99424.94;5054775;28;20454;-57
2020/12/03 06:40:23;;;;;;;0.20;0.10;;;;;;;3.17;100.00;99416.22;5041313;28;21152;-57
2020/12/03 06:43:10;;;;;;;0.20;0.10;;;;;;;3.19;100.00;99422.31;5050505;28;20458;-57
2020/12/03 06:45:41;;;;;;;0.20;0.10;;;;;;;3.20;100.00;99424.03;5054481;28;20857;-57
2020/12/03 06:48:32;;;;;;;0.20;0.20;;;;;;;3.14;100.00;99417.09;5054513;28;20471;-57
2020/12/03 06:51:13;;;;;;;0.20;0.10;;;;;;;3.15;100.00;99405.72;5054620;28;20449;-57
2020/12/03 06:54:27;;;;;;;0.20;0.10;;;;;;;3.21;100.00;99403.00;5041710;28;20524;-57
2020/12/03 06:57:04;;;;;;;0.20;0.10;;;;;;;3.11;100.00;99408.41;5042108;28;20529;-57
2020/12/03 07:00:20;;;;;;;0.20;0.10;;;;;;;3.23;100.00;99397.75;5054355;28;20446;-57
2020/12/03 07:02:52;;;;;;;0.20;0.10;;;;;;;3.35;100.00;99397.56;5054751;28;20482;-56
2020/12/03 07:05:46;;;;;;;0.20;0.10;;;;;;;3.37;100.00;99392.28;5054286;28;20579;-56
2020/12/03 07:08:47;;;;;;;0.30;0.30;;;;;;;3.42;100.00;99393.09;5037205;28;20466;-57
2020/12/03 07:11:13;;;;;;;0.20;0.10;;;;;;;3.34;100.00;99392.34;5051993;28;20944;-57
2020/12/03 07:14:13;;;;;;;0.20;0.10;;;;;;;3.42;100.00;99390.47;5044622;28;20518;-56
2020/12/03 07:17:05;;;;;;;0.20;0.10;;;;;;;3.40;100.00;99389.63;5041159;28;20538;-57
2020/12/03 07:20:00;;;;;;;0.20;0.10;;;;;;;3.38;100.00;99387.00;5053777;28;20451;-56
2020/12/03 07:22:39;;;;;;;0.20;0.10;;;;;;;3.34;100.00;99384.47;5044555;28;20458;-56
2020/12/03 07:25:08;;;;;;;0.97;0.97;;;;;;;3.32;100.00;99379.25;5053890;28;20848;-56
2020/12/03 07:28:08;;;;;;;0.20;0.20;;;;;;;3.28;100.00;99374.91;5047376;28;20486;-56
2020/12/03 07:30:37;;;;;;;0.20;0.20;;;;;;;3.36;100.00;99370.41;5047566;28;20455;-56
2020/12/03 07:33:09;;;;;;;0.20;0.10;;;;;;;3.35;100.00;99367.81;5053753;28;20455;-56
2020/12/03 07:35:46;;;;;;;0.20;0.10;;;;;;;3.31;100.00;99356.50;5053651;28;20995;-57
2020/12/03 07:38:24;;;;;;;0.20;0.10;;;;;;;3.39;100.00;99346.72;5044262;28;20470;-57
2020/12/03 07:40:53;;;;;;;0.20;0.10;;;;;;;3.42;100.00;99340.56;5040414;28;20450;-56
2020/12/03 07:43:33;;;;;;;0.20;0.10;;;;;;;3.35;100.00;99333.69;5053553;28;20455;-56
2020/12/03 07:46:01;;;;;;;0.30;0.30;;;;;;;3.19;100.00;99333.03;5041666;28;20485;-56
2020/12/03 07:48:30;;;;;;;0.20;0.10;;;;;;;3.19;100.00;99325.16;5052171;28;20471;-56
2020/12/03 07:51:02;;;;;;;0.20;0.10;;;;;;;3.29;100.00;99324.13;5053810;28;20492;-56
2020/12/03 07:53:32;;;;;;;0.20;0.10;;;;;;;3.27;100.00;99324.13;5039371;28;20451;-56
2020/12/03 07:56:18;;;;;;;0.20;0.10;;;;;;;3.28;100.00;99322.38;5053769;28;20443;-56
2020/12/03 07:58:45;;;;;;;0.20;0.10;;;;;;;3.35;100.00;99305.66;5053064;28;20860;-56
2020/12/03 08:01:26;;;;;;;0.20;0.10;;;;;;;3.57;100.00;99293.06;5053258;28;20451;-57
2020/12/03 08:03:54;;;;;;;0.30;0.10;;;;;;;3.53;100.00;99292.22;5047338;28;20982;-56
2020/12/03 08:06:23;;;;;;;0.20;0.10;;;;;;;3.46;100.00;99280.09;5040255;28;20586;-56
2020/12/03 08:08:53;;;;;;;0.20;0.10;;;;;;;3.44;100.00;99278.38;5052957;28;20512;-57
2020/12/03 08:11:48;;;;;;;0.30;0.10;;;;;;;3.53;100.00;99286.97;5053005;28;20454;-57
2020/12/03 08:14:37;;;;;;;0.20;0.10;;;;;;;3.61;100.00;99281.59;5050193;28;20548;-57
2020/12/03 08:17:26;;;;;;;0.20;0.10;;;;;;;3.58;100.00;99289.53;5052725;28;20546;-57
2020/12/03 08:20:04;;;;;;;0.20;0.10;;;;;;;3.55;100.00;99286.94;5034487;28;21019;-57
2020/12/03 08:22:34;;;;;;;0.20;0.10;;;;;;;3.65;100.00;99291.16;5039869;28;20455;-57
2020/12/03 08:25:10;;;;;;;0.20;0.10;;;;;;;3.66;100.00;99279.75;5052944;28;20451;-57
2020/12/03 08:27:36;;;;;;;0.20;0.10;;;;;;;3.70;100.00;99281.44;5052873;28;20466;-57
2020/12/03 08:30:04;;;;;;;0.20;0.10;;;;;;;3.69;100.00;99278.81;5052729;28;20454;-56
2020/12/03 08:33:06;;;;;;;0.20;0.10;;;;;;;3.74;100.00;99272.59;5039620;28;20520;-56
2020/12/03 08:35:33;;;;;;;0.20;0.10;;;;;;;3.73;100.00;99277.91;5052528;28;20531;-57
2020/12/03 08:38:04;;;;;;;0.20;0.20;;;;;;;3.67;100.00;99275.34;5047150;28;20599;-57
2020/12/03 08:40:32;;;;;;;0.20;0.10;;;;;;;3.60;100.00;99271.13;5039438;28;20451;-57
2020/12/03 08:43:09;;;;;;;0.20;0.20;;;;;;;3.55;100.00;99268.53;5052802;28;20878;-57
2020/12/03 08:45:44;;;;;;;0.20;0.10;;;;;;;3.60;100.00;99271.13;5052809;28;20454;-57
2020/12/03 08:48:14;;;;;;;0.20;0.10;;;;;;;3.60;100.00;99269.34;5052481;28;20472;-57
2020/12/03 08:50:41;;;;;;;0.40;0.40;;;;;;;3.69;100.00;99274.44;5052752;28;20496;-57
2020/12/03 08:53:08;;;;;;;0.20;0.10;;;;;;;3.65;100.00;99258.75;5039957;28;20460;-57
2020/12/03 08:55:41;;;;;;;0.20;0.10;;;;;;;3.65;100.00;99269.25;5036986;28;20488;-57
2020/12/03 08:58:10;;;;;;;1.03;1.03;;;;;;;3.84;100.00;99263.69;5046514;28;20466;-57
2020/12/03 09:00:41;;;;;;;0.20;0.10;;;;;;;3.79;100.00;99259.38;5052116;28;20454;-57
2020/12/03 09:03:15;;;;;;;0.20;0.10;;;;;;;3.76;100.00;99259.44;5052246;28;20451;-57
2020/12/03 09:05:43;;;;;;;0.20;0.10;;;;;;;3.70;100.00;99255.16;5052211;28;20813;-57
2020/12/03 09:08:16;;;;;;;0.20;0.10;;;;;;;3.71;100.00;99251.66;5052005;28;20478;-57
2020/12/03 09:10:43;;;;;;;0.20;0.10;;;;;;;3.84;100.00;99242.66;5050911;28;20837;-57
2020/12/03 09:13:09;;;;;;;0.20;0.10;;;;;;;3.65;100.00;99257.00;5046501;28;20459;-57
2020/12/03 09:15:37;;;;;;;0.20;0.10;;;;;;;3.67;100.00;99244.69;5042519;28;21000;-57
2020/12/03 09:18:05;;;;;;;0.20;0.10;;;;;;;3.70;100.00;99251.66;5051868;28;20979;-57
2020/12/03 09:20:31;;;;;;;0.20;0.10;;;;;;;3.76;100.00;99256.81;5052037;28;20933;-57
2020/12/03 09:22:57;;;;;;;0.30;0.20;;;;;;;3.98;100.00;99252.03;5044817;28;20450;-57
2020/12/03 09:25:25;;;;;;;0.20;0.10;;;;;;;3.82;100.00;99246.16;5051930;28;20508;-57
2020/12/03 09:27:51;;;;;;;0.20;0.10;;;;;;;3.67;100.00;99242.06;5051526;28;20884;-57
2020/12/03 09:30:21;;;;;;;0.20;0.10;;;;;;;3.71;100.00;99233.25;5047814;28;20458;-57
2020/12/03 09:32:57;;;;;;;0.20;0.20;;;;;;;3.84;100.00;99232.13;5052012;28;20443;-57
2020/12/03 09:35:25;;;;;;;0.20;0.10;;;;;;;3.85;100.00;99233.00;5051743;28;20497;-57
2020/12/03 09:37:59;;;;;;;0.20;0.10;;;;;;;3.86;100.00;99229.47;5051770;28;20471;-57
2020/12/03 09:40:27;;;;;;;0.20;0.10;;;;;;;4.11;100.00;99235.09;5038383;28;20441;-57
2020/12/03 09:42:54;;;;;;;0.20;0.20;;;;;;;4.14;100.00;99242.97;5051594;28;20504;-57
2020/12/03 09:45:34;;;;;;;0.20;0.10;;;;;;;4.15;100.00;99236.81;5051405;28;20465;-57
2020/12/03 09:48:02;;;;;;;0.20;0.10;;;;;;;4.43;100.00;99245.88;5039450;28;20490;-57
2020/12/03 09:50:28;;;;;;;0.20;0.10;;;;;;;4.32;100.00;99241.72;5050041;28;20451;-57
2020/12/03 09:52:56;;;;;;;0.20;0.10;;;;;;;4.30;100.00;99225.97;5041248;28;20451;-57
2020/12/03 09:55:22;;;;;;;0.30;0.20;;;;;;;4.23;100.00;99226.13;5054077;28;20516;-57
2020/12/03 09:57:55;;;;;;;0.20;0.10;;;;;;;4.00;100.00;99218.69;5055629;28;20476;-57
2020/12/03 10:00:28;;;;;;;10.30;4.47;;;;;;;4.13;100.00;99214.94;5055563;28;20816;-57
2020/12/03 10:02:54;;;;;;;0.20;0.10;;;;;;;4.13;100.00;99207.03;5055717;28;20434;-57
2020/12/03 10:05:38;;;;;;;0.20;0.10;;;;;;;3.92;100.00;99194.31;5045557;28;20812;-57
2020/12/03 10:08:28;;;;;;;0.20;0.10;;;;;;;4.05;100.00;99196.66;5052088;28;20827;-57
2020/12/03 10:11:06;;;;;;;0.20;0.10;;;;;;;4.12;100.00;99179.03;5055302;28;20450;-57
2020/12/03 10:14:07;;;;;;;0.20;0.10;;;;;;;4.14;100.00;99174.59;5043218;28;20507;-57
2020/12/03 10:16:40;;;;;;;0.20;0.10;;;;;;;4.11;100.00;99172.91;5053894;28;20504;-57
2020/12/03 10:19:10;;;;;;;0.20;0.10;;;;;;;4.08;100.00;99167.69;5055161;28;20473;-58
2020/12/03 10:21:59;;;;;;;0.20;0.10;;;;;;;4.08;100.00;99156.28;5042767;28;20459;-57
2020/12/03 10:24:35;;;;;;;0.20;0.10;;;;;;;4.15;100.00;99145.63;5035327;28;20497;-57
2020/12/03 10:27:18;;;;;;;0.20;0.10;;;;;;;4.26;100.00;99141.91;5047553;28;20462;-57
2020/12/03 10:29:59;;;;;;;0.20;0.10;;;;;;;4.34;100.00;99135.56;5055203;28;20449;-57
2020/12/03 10:32:26;;;;;;;0.20;0.10;;;;;;;4.34;100.00;99125.03;5054875;28;20446;-57
2020/12/03 10:34:53;;;;;;;0.20;0.10;;;;;;;4.53;100.00;99122.00;5054864;28;20483;-57
2020/12/03 10:37:35;;;;;;;0.20;0.10;;;;;;;4.49;100.00;99117.69;5040675;28;20983;-57
2020/12/03 10:40:17;;;;;;;0.20;0.10;;;;;;;4.55;100.00;99113.19;5041657;28;20932;-57
2020/12/03 10:42:48;;;;;;;0.20;0.10;;;;;;;4.49;100.00;99097.53;5035309;28;20446;-57
2020/12/03 10:45:20;;;;;;;0.20;0.10;;;;;;;4.44;100.00;99081.84;5049119;28;20458;-57
2020/12/03 10:47:52;;;;;;;0.20;0.10;;;;;;;4.42;100.00;99088.91;5035265;28;20492;-57
2020/12/03 10:50:20;;;;;;;0.20;0.10;;;;;;;4.45;100.00;99085.34;5048566;28;20514;-57
2020/12/03 10:52:46;;;;;;;1.07;1.07;;;;;;;4.53;100.00;99075.53;5034753;28;20503;-57
2020/12/03 10:55:17;;;;;;;0.20;0.10;;;;;;;4.40;100.00;99063.56;5037346;28;20487;-58
2020/12/03 10:57:58;;;;;;;0.20;0.10;;;;;;;4.45;100.00;99045.88;5047927;28;20478;-58
2020/12/03 11:00:25;;;;;;;0.20;0.10;;;;;;;4.45;100.00;99049.38;5041682;28;20431;-57
2020/12/03 11:02:56;;;;;;;0.20;0.20;;;;;;;4.45;100.00;99038.00;5054396;28;20877;-58
2020/12/03 11:05:22;;;;;;;0.20;0.20;;;;;;;4.42;100.00;99025.78;5033144;28;20442;-57
2020/12/03 11:07:55;;;;;;;0.20;0.10;;;;;;;4.58;100.00;99015.75;5034765;28;20472;-57
2020/12/03 11:10:23;;;;;;;0.20;0.10;;;;;;;4.56;99.81;99017.56;5043063;28;20443;-57
2020/12/03 11:12:52;;;;;;;0.20;0.10;;;;;;;4.47;100.00;99008.09;5039763;28;20447;-58
2020/12/03 11:15:23;;;;;;;0.30;0.10;;;;;;;4.47;100.00;99000.22;5045662;28;20484;-56
2020/12/03 11:18:01;;;;;;;0.20;0.20;;;;;;;4.58;100.00;99004.34;5046423;28;20491;-56
2020/12/03 11:20:53;;;;;;;0.20;0.10;;;;;;;4.59;100.00;99008.72;5048403;28;20450;-56
2020/12/03 11:23:20;;;;;;;0.20;0.10;;;;;;;4.49;100.00;99012.47;5049064;28;20446;-56
2020/12/03 11:25:50;;;;;;;0.30;0.20;;;;;;;4.53;100.00;99014.13;5054179;28;20451;-56
2020/12/03 11:28:33;;;;;;;0.20;0.10;;;;;;;4.71;100.00;99011.03;5052782;28;20524;-56
2020/12/03 11:31:07;;;;;;;0.20;0.10;;;;;;;4.83;99.39;99018.63;5049255;28;20463;-56
2020/12/03 11:33:41;;;;;;;0.20;0.10;;;;;;;4.72;99.81;99021.53;5047634;28;20446;-57
2020/12/03 11:36:15;;;;;;;2.50;1.60;;;;;;;4.60;99.99;99024.47;5054201;28;20859;-57
2020/12/03 11:38:54;;;;;;;0.20;0.10;;;;;;;4.70;100.00;99020.69;5050796;28;20463;-56
2020/12/03 11:42:06;;;;;;;0.20;0.10;;;;;;;4.87;100.00;99016.75;5043575;28;20449;-56
2020/12/03 11:49:30;;;;;;;0.20;0.10;;;;;;;4.82;99.52;98984.44;5049571;28;20466;-56
2020/12/03 11:52:16;;;;;;;0.20;0.20;;;;;;;4.82;99.29;98974.78;5036840;28;20467;-55
2020/12/03 11:54:45;;;;;;;0.20;0.10;;;;;;;4.76;99.35;98967.88;5046421;28;20482;-56
2020/12/03 11:57:14;;;;;;;0.20;0.20;;;;;;;4.73;99.47;98959.22;5053618;28;20467;-56
2020/12/03 11:59:40;;;;;;;0.20;0.10;;;;;;;4.73;99.82;98949.56;5053386;28;20541;-56
2020/12/03 12:02:08;;;;;;;0.27;0.20;;;;;;;4.69;99.13;98950.53;5053445;28;20447;-56
2020/12/03 12:05:16;;;;;;;0.20;0.20;;;;;;;4.66;99.86;98937.47;5053345;28;20599;-56
2020/12/03 12:07:44;;;;;;;0.20;0.13;;;;;;;4.76;99.19;98933.66;5047841;28;20558;-56